createdAt,value
2019-03-24T00:02:29.192Z,103072.41
2019-03-24T00:04:59.620Z,103081.11
2019-03-24T00:07:29.905Z,103073.16
2019-03-24T00:10:00.351Z,103083.06
2019-03-24T00:12:30.672Z,103083.06
2019-03-24T00:15:00.962Z,103079.52
2019-03-24T00:17:31.406Z,103084.66
2019-03-24T00:20:01.714Z,103094.67
2019-03-24T00:22:32.061Z,103085.90
2019-03-24T00:25:02.310Z,103080.17
2019-03-24T00:27:32.700Z,103077.55
2019-03-24T00:30:03.108Z,103075.73
2019-03-24T00:32:33.494Z,103077.42
2019-03-24T00:35:03.778Z,103072.99
2019-03-24T00:37:34.056Z,103079.11
2019-03-24T00:40:04.416Z,103075.56
2019-03-24T00:42:34.732Z,103076.33
2019-03-24T00:45:05.380Z,103082.34
2019-03-24T00:47:35.700Z,103072.64
2019-03-24T00:50:06.021Z,103067.76
2019-03-24T00:52:36.356Z,103060.66
2019-03-24T00:55:06.796Z,103066.78
2019-03-24T00:57:37.737Z,103063.71
2019-03-24T01:00:08.050Z,103058.89
2019-03-24T01:02:38.372Z,103057.47
2019-03-24T01:05:08.714Z,103059.98
2019-03-24T01:07:39.020Z,103056.47
2019-03-24T01:10:09.341Z,103049.34
2019-03-24T01:12:39.664Z,103044.91
2019-03-24T01:15:10.014Z,103053.16
2019-03-24T01:17:40.318Z,103046.11
2019-03-24T01:20:10.764Z,103052.23
2019-03-24T01:22:41.173Z,103050.00
2019-03-24T01:25:11.443Z,103052.63
2019-03-24T01:27:41.690Z,103050.00
2019-03-24T01:30:12.180Z,103047.79
2019-03-24T01:32:42.469Z,103042.49
2019-03-24T01:35:12.780Z,103043.36
2019-03-24T01:37:43.232Z,103042.48
2019-03-24T01:40:13.566Z,103033.69
2019-03-24T01:42:43.986Z,103035.44
2019-03-24T01:45:14.326Z,103036.25
2019-03-24T01:47:44.731Z,103034.88
2019-03-24T01:50:15.045Z,103031.75
2019-03-24T01:52:45.288Z,103026.44
2019-03-24T01:55:15.718Z,103023.75
2019-03-24T01:57:46.025Z,103021.52
2019-03-24T02:00:16.318Z,103011.88
2019-03-24T02:02:46.588Z,103017.14
2019-03-24T02:05:17.043Z,103020.19
2019-03-24T02:07:47.190Z,103017.99
2019-03-24T02:10:17.513Z,103017.08
2019-03-24T02:12:47.795Z,103015.77
2019-03-24T02:15:18.120Z,103023.64
2019-03-24T02:17:48.534Z,103021.88
2019-03-24T02:20:18.790Z,103027.13
2019-03-24T02:22:49.166Z,103023.12
2019-03-24T02:25:19.458Z,103023.00
2019-03-24T02:27:49.840Z,103021.17
2019-03-24T02:30:20.139Z,103026.30
2019-03-24T02:32:50.490Z,103027.09
2019-03-24T02:35:20.807Z,103021.72
2019-03-24T02:37:51.053Z,103018.55
2019-03-24T02:40:21.349Z,103013.73
2019-03-24T02:42:51.650Z,103012.34
2019-03-24T02:45:22.123Z,103016.14
2019-03-24T02:47:52.421Z,103019.59
2019-03-24T02:50:22.778Z,103024.31
2019-03-24T02:52:53.085Z,103025.12
2019-03-24T02:55:23.424Z,103022.05
2019-03-24T02:57:53.838Z,103015.50
2019-03-24T03:00:24.134Z,103004.59
2019-03-24T03:02:54.420Z,103006.27
2019-03-24T03:05:24.725Z,103004.84
2019-03-24T03:07:55.021Z,103003.51
2019-03-24T03:10:25.382Z,102997.81
2019-03-24T03:12:55.670Z,103002.13
2019-03-24T03:15:26.174Z,103006.05
2019-03-24T03:17:56.475Z,103006.86
2019-03-24T03:20:26.778Z,103005.91
2019-03-24T03:22:57.066Z,102997.56
2019-03-24T03:25:27.421Z,102994.06
2019-03-24T03:27:57.719Z,102990.99
2019-03-24T03:30:28.035Z,102984.82
2019-03-24T03:32:58.316Z,102977.39
2019-03-24T03:35:28.715Z,102980.91
2019-03-24T03:37:59.053Z,102978.65
2019-03-24T03:40:29.309Z,102976.81
2019-03-24T03:42:59.599Z,102979.30
2019-03-24T03:45:30.406Z,102980.09
2019-03-24T03:48:00.773Z,102976.89
2019-03-24T03:50:31.062Z,102976.98
2019-03-24T03:53:01.428Z,102981.98
2019-03-24T03:55:31.720Z,102981.27
2019-03-24T03:58:02.095Z,102984.89
2019-03-24T04:00:36.078Z,102981.11
2019-03-24T04:03:06.396Z,102975.56
2019-03-24T04:05:36.686Z,102969.23
2019-03-24T04:08:07.062Z,102970.23
2019-03-24T04:10:37.363Z,102968.68
2019-03-24T04:13:07.709Z,102965.75
2019-03-24T04:15:37.989Z,102972.44
2019-03-24T04:18:08.343Z,102969.12
2019-03-24T04:20:38.606Z,102964.88
2019-03-24T04:23:08.992Z,102970.62
2019-03-24T04:25:39.309Z,102968.48
2019-03-24T04:28:09.639Z,102961.56
2019-03-24T04:30:39.949Z,102955.95
2019-03-24T04:33:10.289Z,102952.08
2019-03-24T04:35:40.605Z,102954.77
2019-03-24T04:38:10.955Z,102962.68
2019-03-24T04:40:41.238Z,102957.06
2019-03-24T04:43:11.607Z,102952.31
2019-03-24T04:45:41.907Z,102948.81
2019-03-24T04:48:12.238Z,102947.05
2019-03-24T04:50:42.575Z,102943.56
2019-03-24T04:53:12.891Z,102945.75
2019-03-24T04:55:43.179Z,102948.81
2019-03-24T04:58:13.589Z,102944.43
2019-03-24T05:00:43.822Z,102954.05
2019-03-24T05:03:14.084Z,102952.30
2019-03-24T05:05:44.384Z,102951.87
2019-03-24T05:08:15.048Z,102948.80
2019-03-24T05:10:45.360Z,102946.52
2019-03-24T05:13:15.703Z,102950.45
2019-03-24T05:15:46.002Z,102943.89
2019-03-24T05:18:16.349Z,102946.50
2019-03-24T05:20:46.616Z,102941.19
2019-03-24T05:23:16.895Z,102935.89
2019-03-24T05:25:47.200Z,102935.85
2019-03-24T05:28:17.557Z,102932.78
2019-03-24T05:30:47.828Z,102926.66
2019-03-24T05:33:18.194Z,102933.48
2019-03-24T05:35:48.462Z,102933.48
2019-03-24T05:38:18.774Z,102929.55
2019-03-24T05:40:49.094Z,102926.91
2019-03-24T05:43:19.405Z,102924.25
2019-03-24T05:45:49.691Z,102927.69
2019-03-24T05:48:19.985Z,102919.42
2019-03-24T05:50:50.263Z,102909.83
2019-03-24T05:53:20.690Z,102908.67
2019-03-24T05:55:50.992Z,102905.67
2019-03-24T05:58:21.358Z,102896.50
2019-03-24T06:00:51.643Z,102893.94
2019-03-24T06:03:22.000Z,102903.56
2019-03-24T06:05:52.313Z,102903.44
2019-03-24T06:08:22.637Z,102902.61
2019-03-24T06:10:52.958Z,102902.79
2019-03-24T06:13:23.250Z,102900.34
2019-03-24T06:15:53.564Z,102900.23
2019-03-24T06:18:23.948Z,102897.00
2019-03-24T06:20:54.372Z,102898.58
2019-03-24T06:23:24.670Z,102906.66
2019-03-24T06:25:55.007Z,102904.52
2019-03-24T06:28:25.291Z,102904.42
2019-03-24T06:30:55.617Z,102903.00
2019-03-24T06:33:25.976Z,102895.18
2019-03-24T06:35:56.309Z,102905.02
2019-03-24T06:38:26.736Z,102900.44
2019-03-24T06:40:57.072Z,102895.63
2019-03-24T06:43:27.485Z,102896.59
2019-03-24T06:45:57.796Z,102894.11
2019-03-24T06:48:28.239Z,102892.93
2019-03-24T06:50:58.570Z,102904.84
2019-03-24T06:53:28.990Z,102910.06
2019-03-24T06:55:59.309Z,102909.05
2019-03-24T06:58:30.105Z,102906.32
2019-03-24T07:01:00.438Z,102903.88
2019-03-24T07:03:32.699Z,102901.29
2019-03-24T07:06:01.119Z,102902.66
2019-03-24T07:08:31.444Z,102900.59
2019-03-24T07:11:01.783Z,102888.86
2019-03-24T07:13:32.104Z,102886.36
2019-03-24T07:16:02.503Z,102883.30
2019-03-24T07:18:32.942Z,102879.35
2019-03-24T07:21:03.291Z,102879.35
2019-03-24T07:23:33.603Z,102874.18
2019-03-24T07:26:03.878Z,102871.78
2019-03-24T07:28:34.200Z,102860.21
2019-03-24T07:31:04.606Z,102864.03
2019-03-24T07:33:34.918Z,102856.17
2019-03-24T07:36:05.369Z,102860.02
2019-03-24T07:38:35.759Z,102853.57
2019-03-24T07:41:06.069Z,102854.92
2019-03-24T07:43:36.534Z,102851.41
2019-03-24T07:46:06.865Z,102850.98
2019-03-24T07:48:37.209Z,102851.01
2019-03-24T07:51:07.494Z,102845.84
2019-03-24T07:53:37.788Z,102855.14
2019-03-24T07:56:08.162Z,102856.42
2019-03-24T07:58:38.587Z,102860.03
2019-03-24T08:01:08.894Z,102868.30
2019-03-24T08:03:39.210Z,102860.49
2019-03-24T08:06:09.560Z,102855.73
2019-03-24T08:08:44.274Z,102856.31
2019-03-24T08:11:10.419Z,102856.31
2019-03-24T08:13:40.745Z,102834.46
2019-03-24T08:16:11.065Z,102861.95
2019-03-24T08:18:41.460Z,102861.95
2019-03-24T08:21:11.814Z,102862.07
2019-03-24T08:23:42.160Z,102866.58
2019-03-24T08:26:12.436Z,102844.17
2019-03-24T08:28:42.697Z,102862.70
2019-03-24T08:31:13.014Z,102878.13
2019-03-24T08:33:43.443Z,102876.02
2019-03-24T08:36:15.707Z,102867.41
2019-03-24T08:38:44.122Z,102872.81
2019-03-24T08:41:14.394Z,102862.71
2019-03-24T08:43:44.708Z,102862.71
2019-03-24T08:46:14.999Z,102861.39
2019-03-24T08:48:45.299Z,102865.31
2019-03-24T08:51:15.585Z,102866.97
2019-03-24T08:53:45.933Z,102846.29
2019-03-24T08:56:16.244Z,102846.29
2019-03-24T08:58:46.591Z,102852.98
2019-03-24T09:01:17.093Z,102848.66
2019-03-24T09:03:47.366Z,102843.85
2019-03-24T09:06:17.703Z,102840.34
2019-03-24T09:08:49.069Z,102836.80
2019-03-24T09:11:18.376Z,102834.17
2019-03-24T09:13:48.779Z,102833.75
2019-03-24T09:16:19.029Z,102833.70
2019-03-24T09:18:52.906Z,102824.48
2019-03-24T09:21:19.773Z,102825.36
2019-03-24T09:23:49.986Z,102822.26
2019-03-24T09:26:20.349Z,102818.73
2019-03-24T09:28:50.691Z,102826.64
2019-03-24T09:31:20.966Z,102817.41
2019-03-24T09:33:51.272Z,102814.77
2019-03-24T09:36:21.644Z,102807.24
2019-03-24T09:38:51.941Z,102798.88
2019-03-24T09:41:22.306Z,102797.09
2019-03-24T09:43:52.653Z,102779.39
2019-03-24T09:46:22.958Z,102777.53
2019-03-24T09:49:02.693Z,102773.88
2019-03-24T09:51:23.602Z,102773.20
2019-03-24T09:53:53.915Z,102762.74
2019-03-24T09:56:24.206Z,102754.55
2019-03-24T09:58:54.481Z,102752.64
2019-03-24T10:01:24.925Z,102763.22
2019-03-24T10:03:55.238Z,102754.38
2019-03-24T10:06:25.553Z,102750.33
2019-03-24T10:08:55.894Z,102753.36
2019-03-24T10:11:26.202Z,102756.30
2019-03-24T10:13:56.478Z,102744.58
2019-03-24T10:16:26.852Z,102740.77
2019-03-24T10:18:57.186Z,102729.82
2019-03-24T10:21:27.470Z,102723.71
2019-03-24T10:23:57.776Z,102716.89
2019-03-24T10:26:28.068Z,102721.48
2019-03-24T10:28:58.387Z,102712.42
2019-03-24T10:31:28.696Z,102710.59
2019-03-24T10:33:59.056Z,102710.95
2019-03-24T10:36:29.343Z,102700.27
2019-03-24T10:38:59.684Z,102701.77
2019-03-24T10:41:30.000Z,102689.41
2019-03-24T10:44:00.338Z,102693.70
2019-03-24T10:46:30.663Z,102692.00
2019-03-24T10:49:00.990Z,102702.47
2019-03-24T10:51:31.272Z,102701.44
2019-03-24T10:54:01.578Z,102698.17
2019-03-24T10:56:31.941Z,102693.47
2019-03-24T10:59:02.380Z,102682.99
2019-03-24T11:01:32.697Z,102682.66
2019-03-24T11:04:03.048Z,102686.33
2019-03-24T11:06:33.340Z,102681.41
2019-03-24T11:09:03.838Z,102692.87
2019-03-24T11:11:34.197Z,102693.44
2019-03-24T11:14:04.546Z,102691.81
2019-03-24T11:16:34.853Z,102682.97
2019-03-24T11:19:05.170Z,102683.02
2019-03-24T11:21:35.504Z,102678.48
2019-03-24T11:24:05.787Z,102671.66
2019-03-24T11:26:36.080Z,102663.94
2019-03-24T11:29:06.388Z,102651.34
2019-03-24T11:31:36.698Z,102648.31
2019-03-24T11:34:07.073Z,102639.83
2019-03-24T11:36:37.364Z,102634.48
2019-03-24T11:39:08.742Z,102624.48
2019-03-24T11:41:39.014Z,102627.66
2019-03-24T11:44:09.356Z,102618.48
2019-03-24T11:46:39.676Z,102615.12
2019-03-24T11:49:17.925Z,102616.75
2019-03-24T11:51:48.308Z,102607.61
2019-03-24T11:54:18.649Z,102594.33
2019-03-24T11:56:48.944Z,102592.84
2019-03-24T11:59:19.273Z,102602.34
2019-03-24T12:01:49.527Z,102587.28
2019-03-24T12:04:19.873Z,102585.67
2019-03-24T12:06:50.156Z,102584.55
2019-03-24T12:09:20.502Z,102581.80
2019-03-24T12:11:50.816Z,102577.69
2019-03-24T12:14:21.137Z,102577.21
2019-03-24T12:16:51.467Z,102579.93
2019-03-24T12:19:21.817Z,102589.11
2019-03-24T12:21:52.097Z,102579.61
2019-03-24T12:24:22.745Z,102572.92
2019-03-24T12:26:53.268Z,102567.53
2019-03-24T12:29:23.636Z,102564.00
2019-03-24T12:31:53.928Z,102564.45
2019-03-24T12:34:24.249Z,102556.55
2019-03-24T12:36:54.632Z,102548.95
2019-03-24T12:39:24.979Z,102551.47
2019-03-24T12:41:55.459Z,102544.50
2019-03-24T12:44:25.816Z,102536.42
2019-03-24T12:46:56.125Z,102528.78
2019-03-24T12:49:26.532Z,102533.64
2019-03-24T12:51:56.822Z,102522.98
2019-03-24T12:54:27.163Z,102525.65
2019-03-24T12:56:57.472Z,102535.70
2019-03-24T12:59:27.759Z,102528.25
2019-03-24T13:01:58.135Z,102519.52
2019-03-24T13:04:28.436Z,102516.23
2019-03-24T13:06:58.726Z,102516.00
2019-03-24T13:09:29.037Z,102508.33
2019-03-24T13:11:59.326Z,102505.97
2019-03-24T13:14:30.823Z,102502.11
2019-03-24T13:16:59.978Z,102521.59
2019-03-24T13:19:30.327Z,102512.77
2019-03-24T13:22:00.638Z,102506.59
2019-03-24T13:24:30.972Z,102502.77
2019-03-24T13:27:01.292Z,102500.02
2019-03-24T13:29:31.734Z,102498.13
2019-03-24T13:32:02.068Z,102500.56
2019-03-24T13:34:32.378Z,102492.80
2019-03-24T13:37:04.285Z,102497.48
2019-03-24T13:39:32.966Z,102493.62
2019-03-24T13:42:03.272Z,102499.33
2019-03-24T13:44:33.543Z,102491.14
2019-03-24T13:47:03.856Z,102491.15
2019-03-24T13:49:34.122Z,102479.99
2019-03-24T13:52:04.551Z,102470.65
2019-03-24T13:54:34.816Z,102469.52
2019-03-24T13:57:05.125Z,102462.62
2019-03-24T13:59:35.416Z,102464.55
2019-03-24T14:02:05.698Z,102456.94
2019-03-24T14:04:36.050Z,102458.89
2019-03-24T14:07:06.362Z,102452.55
2019-03-24T14:09:36.626Z,102447.58
2019-03-24T14:12:07.040Z,102449.69
2019-03-24T14:14:37.342Z,102452.38
2019-03-24T14:17:07.692Z,102453.18
2019-03-24T14:19:38.010Z,102448.73
2019-03-24T14:22:08.348Z,102446.27
2019-03-24T14:24:38.751Z,102443.56
2019-03-24T14:27:09.050Z,102443.44
2019-03-24T14:29:39.326Z,102438.25
2019-03-24T14:32:09.662Z,102427.48
2019-03-24T14:34:58.815Z,102419.91
2019-03-24T14:37:29.227Z,102426.84
2019-03-24T14:39:59.519Z,102416.89
2019-03-24T14:42:29.803Z,102413.33
2019-03-24T14:45:00.112Z,102412.41
2019-03-24T14:47:30.478Z,102412.77
2019-03-24T14:50:00.840Z,102418.95
2019-03-24T14:52:31.176Z,102422.84
2019-03-24T14:55:01.518Z,102401.15
2019-03-24T14:57:31.893Z,102397.48
2019-03-24T15:00:02.250Z,102396.82
2019-03-24T15:02:32.610Z,102387.88
2019-03-24T15:05:02.989Z,102391.19
2019-03-24T15:07:33.326Z,102394.86
2019-03-24T15:10:03.658Z,102406.17
2019-03-24T15:12:33.980Z,102392.11
2019-03-24T15:15:04.371Z,102392.48
2019-03-24T15:17:34.798Z,102389.57
2019-03-24T15:20:05.506Z,102391.54
2019-03-24T15:22:35.867Z,102384.62
2019-03-24T15:25:06.336Z,102385.19
2019-03-24T15:27:36.618Z,102387.05
2019-03-24T15:30:07.256Z,102377.30
2019-03-24T15:32:37.774Z,102384.88
2019-03-24T15:35:08.348Z,102371.58
2019-03-24T15:37:38.683Z,102375.52
2019-03-24T15:40:09.104Z,102369.70
2019-03-24T15:42:39.422Z,102366.91
2019-03-24T15:45:09.820Z,102364.09
2019-03-24T15:47:40.190Z,102369.54
2019-03-24T15:50:10.506Z,102367.16
2019-03-24T15:52:40.820Z,102360.11
2019-03-24T15:55:11.094Z,102354.39
2019-03-24T15:57:41.400Z,102368.23
2019-03-24T16:00:11.812Z,102356.35
2019-03-24T16:02:42.139Z,102357.74
2019-03-24T16:05:12.414Z,102349.41
2019-03-24T16:07:42.726Z,102352.17
2019-03-24T16:10:13.008Z,102351.03
2019-03-24T16:12:43.295Z,102344.84
2019-03-24T16:15:13.714Z,102347.77
2019-03-24T16:17:44.033Z,102349.05
2019-03-24T16:20:17.874Z,102340.03
2019-03-24T16:22:48.200Z,102349.77
2019-03-24T16:25:18.466Z,102346.63
2019-03-24T16:27:48.815Z,102345.35
2019-03-24T16:30:19.174Z,102342.63
2019-03-24T16:32:49.539Z,102336.88
2019-03-24T16:35:23.370Z,102329.25
2019-03-24T16:37:53.661Z,102327.64
2019-03-24T16:40:23.963Z,102326.20
2019-03-24T16:42:54.272Z,102322.78
2019-03-24T16:45:25.100Z,102317.55
2019-03-24T16:47:56.138Z,102322.41
2019-03-24T16:50:26.414Z,102319.20
2019-03-24T16:52:56.825Z,102319.91
2019-03-24T16:55:27.110Z,102319.45
2019-03-24T16:57:57.434Z,102313.02
2019-03-24T17:00:27.741Z,102325.92
2019-03-24T17:02:58.034Z,102322.03
2019-03-24T17:05:28.343Z,102319.25
2019-03-24T17:07:58.689Z,102319.59
2019-03-24T17:10:28.964Z,102319.13
2019-03-24T17:12:59.357Z,102315.42
2019-03-24T17:15:29.718Z,102305.06
2019-03-24T17:18:00.067Z,102308.30
2019-03-24T17:20:30.391Z,102302.13
2019-03-24T17:23:00.773Z,102306.71
2019-03-24T17:25:31.085Z,102308.11
2019-03-24T17:28:01.412Z,102310.91
2019-03-24T17:30:31.708Z,102314.98
2019-03-24T17:33:01.997Z,102306.24
2019-03-24T17:35:32.296Z,102308.05
2019-03-24T17:38:02.587Z,102305.53
2019-03-24T17:40:39.077Z,102302.53
2019-03-24T17:43:06.992Z,102297.76
2019-03-24T17:45:37.291Z,102295.16
2019-03-24T17:48:07.599Z,102301.80
2019-03-24T17:50:37.886Z,102304.04
2019-03-24T17:53:08.233Z,102307.66
2019-03-24T17:55:38.530Z,102272.66
2019-03-24T17:58:08.828Z,102272.66
2019-03-24T18:00:44.534Z,102298.55
2019-03-24T18:03:14.874Z,102298.55
2019-03-24T18:05:45.176Z,102302.09
2019-03-24T18:08:15.562Z,102298.66
2019-03-24T18:10:45.832Z,102310.54
2019-03-24T18:13:16.198Z,102303.54
2019-03-24T18:15:46.528Z,102307.98
2019-03-24T18:18:17.026Z,102309.75
2019-03-24T18:20:47.396Z,102305.83
2019-03-24T18:23:17.612Z,102309.36
2019-03-24T18:25:47.904Z,102298.84
2019-03-24T18:28:18.256Z,102294.02
2019-03-24T18:30:48.534Z,102292.27
2019-03-24T18:33:18.907Z,102292.27
2019-03-24T18:35:49.297Z,102295.34
2019-03-24T18:38:19.901Z,102295.38
2019-03-24T18:40:50.270Z,102294.06
2019-03-24T18:43:20.588Z,102287.05
2019-03-24T18:45:50.982Z,102283.55
2019-03-24T18:48:21.266Z,102284.90
2019-03-24T18:50:51.611Z,102284.90
2019-03-24T18:53:22.002Z,102282.69
2019-03-24T18:55:52.354Z,102282.70
2019-03-24T18:58:22.646Z,102272.62
2019-03-24T19:00:53.004Z,102258.59
2019-03-24T19:03:23.282Z,102258.59
2019-03-24T19:05:53.673Z,102267.34
2019-03-24T19:08:23.980Z,102255.52
2019-03-24T19:10:54.411Z,102255.52
2019-03-24T19:13:24.798Z,102255.06
2019-03-24T19:15:55.238Z,102253.33
2019-03-24T19:18:25.660Z,102248.51
2019-03-24T19:20:56.070Z,102248.51
2019-03-24T19:23:26.568Z,102258.59
2019-03-24T19:25:57.100Z,102241.07
2019-03-24T19:28:27.681Z,102246.33
2019-03-24T19:30:58.057Z,102248.52
2019-03-24T19:33:29.618Z,102245.88
2019-03-24T19:35:58.936Z,102239.31
2019-03-24T19:38:29.345Z,102242.38
2019-03-24T19:40:59.666Z,102237.55
2019-03-24T19:43:30.006Z,102241.50
2019-03-24T19:46:00.355Z,102241.50
2019-03-24T19:48:30.640Z,102239.30
2019-03-24T19:51:00.989Z,102237.98
2019-03-24T19:53:31.354Z,102242.38
2019-03-24T19:56:01.672Z,102240.64
2019-03-24T19:58:31.998Z,102234.92
2019-03-24T20:01:02.310Z,102234.92
2019-03-24T20:03:32.729Z,102232.72
2019-03-24T20:06:03.685Z,102237.11
2019-03-24T20:08:33.965Z,102239.31
2019-03-24T20:11:04.350Z,102236.69
2019-03-24T20:13:34.651Z,102223.50
2019-03-24T20:16:05.076Z,102220.00
2019-03-24T20:18:35.414Z,102220.00
2019-03-24T20:21:05.757Z,102228.78
2019-03-24T20:23:38.173Z,102208.56
2019-03-24T20:26:08.482Z,102208.56
2019-03-24T20:28:38.796Z,102210.75
2019-03-24T20:31:09.098Z,102195.84
2019-03-24T20:33:47.541Z,102195.84
2019-03-24T20:36:14.680Z,102197.58
2019-03-24T20:38:45.025Z,102192.29
2019-03-24T20:41:15.343Z,102185.26
2019-03-24T20:43:45.648Z,102177.35
2019-03-24T20:46:16.011Z,102175.12
2019-03-24T20:48:46.400Z,102164.14
2019-03-24T20:51:16.711Z,102164.14
2019-03-24T20:53:47.012Z,102172.48
2019-03-24T20:56:17.316Z,102174.24
2019-03-24T20:58:47.640Z,102167.66
2019-03-24T21:01:18.889Z,102170.33
2019-03-24T21:03:48.362Z,102160.69
2019-03-24T21:06:18.813Z,102167.72
2019-03-24T21:08:49.143Z,102163.34
2019-03-24T21:11:19.464Z,102157.64
2019-03-24T21:13:49.767Z,102161.63
2019-03-24T21:16:20.271Z,102156.34
2019-03-24T21:18:51.148Z,102152.41
2019-03-24T21:21:20.947Z,102140.57
2019-03-24T21:23:51.232Z,102132.25
2019-03-24T21:26:21.560Z,102132.25
2019-03-24T21:28:51.866Z,102129.18
2019-03-24T21:31:22.253Z,102123.04
2019-03-24T21:33:52.648Z,102123.04
2019-03-24T21:36:22.978Z,102111.63
2019-03-24T21:38:53.302Z,102109.89
2019-03-24T21:41:23.608Z,102107.22
2019-03-24T21:43:53.983Z,102097.14
2019-03-24T21:46:24.304Z,102098.03
2019-03-24T21:48:54.654Z,102096.70
2019-03-24T21:51:24.997Z,102090.11
2019-03-24T21:53:55.341Z,102093.17
2019-03-24T21:56:25.744Z,102084.42
2019-03-24T21:58:56.135Z,102098.02
2019-03-24T22:01:26.469Z,102098.02
2019-03-24T22:03:56.824Z,102084.44
2019-03-24T22:06:27.204Z,102084.44
2019-03-24T22:08:57.580Z,102082.68
2019-03-24T22:11:27.995Z,102084.89
2019-03-24T22:13:58.317Z,102085.73
2019-03-24T22:16:28.727Z,102086.19
2019-03-24T22:18:59.051Z,102086.19
2019-03-24T22:21:29.376Z,102083.56
2019-03-24T22:23:59.802Z,102081.36
2019-03-24T22:26:30.084Z,102081.36
2019-03-24T22:29:00.427Z,102082.26
2019-03-24T22:31:30.737Z,102090.13
2019-03-24T22:34:01.067Z,102084.89
2019-03-24T22:36:31.407Z,102075.22
2019-03-24T22:39:01.737Z,102078.30
2019-03-24T22:41:32.152Z,102065.14
2019-03-24T22:44:02.553Z,102071.75
2019-03-24T22:46:32.857Z,102071.75
2019-03-24T22:49:03.182Z,102069.52
2019-03-24T22:51:33.583Z,102044.97
2019-03-24T22:54:03.927Z,102052.00
2019-03-24T22:56:34.236Z,102051.97
2019-03-24T22:59:04.639Z,102048.47
2019-03-24T23:01:35.008Z,102048.94
2019-03-24T23:04:05.353Z,102049.35
2019-03-24T23:06:35.657Z,102045.88
2019-03-24T23:09:08.290Z,102041.47
2019-03-24T23:11:38.621Z,102023.50
2019-03-24T23:14:08.938Z,102028.75
2019-03-24T23:16:39.219Z,102019.57
2019-03-24T23:19:09.628Z,102015.16
2019-03-24T23:21:39.933Z,102009.48
2019-03-24T23:24:15.275Z,102002.47
2019-03-24T23:26:40.713Z,101998.10
2019-03-24T23:29:11.038Z,101998.10
2019-03-24T23:31:41.345Z,101991.09
2019-03-24T23:34:11.691Z,101970.06
2019-03-24T23:36:42.021Z,101983.66
2019-03-24T23:39:12.407Z,101977.09
2019-03-24T23:41:42.733Z,101969.66
2019-03-24T23:44:13.060Z,101963.97
2019-03-24T23:46:43.386Z,101951.25
2019-03-24T23:49:13.807Z,101954.31
2019-03-24T23:51:44.143Z,101943.37
2019-03-24T23:54:14.409Z,101939.44
2019-03-24T23:56:44.932Z,101935.48
2019-03-24T23:59:15.316Z,101935.94
